LiveATC.Net - Listen to live air traffic control over the Internet!


ICAO: KADW  IATA: ADW   Airport: Joint Base Andrews
City: Camp Springs   State/Province: Maryland
Country: United States   Continent: North America
KADW METAR Weather: KADW 181356Z AUTO 27013G21KT 10SM CLR 15/03 A3000 RMK AO2 SLP166 T01460034 $
KADW Flight Activity (FlightAware)
KADW Airport Info   (iFlightPlanner)
KADW VFR Sectional Chart   (iFlightPlanner) 
KADW IFR Low Chart   (iFlightPlanner) 

KDAA/KADW Tower
Feed Status: UP   Listeners: 0
Listen in your browser - HTML5 player (in browser, HTML5)
Click here to listen with your own player (launches your MP3 player)
Archive Access: KDAA/KADW Tower
FacilityFrequency
Andrews Tower118.400
Andrews Tower349.000
Davison Tower126.300
Davison Tower229.400
Davison Tower241.000

NOTICE

Unauthorized use prohibited. See LiveATC.net Terms of Service


Airport/ARTCC Code
Frequency Search
(e.g., 124.400, 128.75)
Site-wide search
 


Browse Feeds
Top 50 Feeds
HF Oceanic Feeds
Coverage Map
Bad Weather Areas

LiveATC FAQ
Offer LiveATC feed
Contact LiveATC.net
Press Inquiries

LiveATC on iPhone
LiveATC on Android

Windows Phone
Windows 8/10

LiveATC Mobile
(Mobile browser)

ATC Audio Archives
Interesting Recordings

LiveATC Forums


Home Page
About LiveATC.net
Make a Donation
Terms of Use
Privacy Policy

Canadian Air Freqs

AIRMETs/SIGMETs

FAA Airport Status
NAS Status
Arrival Demand


Server Software By:
Icecast.org
Liquidsoap